createdAt,value
2023-04-15T06:02:33.349Z,98987.59
2023-04-15T06:05:00.862Z,98991.88
2023-04-15T06:07:27.339Z,98984.78
2023-04-15T06:09:53.920Z,98995.16
2023-04-15T06:12:20.396Z,99004.53
2023-04-15T06:14:46.876Z,99005.19
2023-04-15T06:17:14.894Z,99005.38
2023-04-15T06:19:42.522Z,99011.22
2023-04-15T06:22:09.045Z,99018.91
2023-04-15T06:24:36.994Z,99024.41
2023-04-15T06:27:03.570Z,99024.31
2023-04-15T06:29:30.510Z,99028.47
2023-04-15T06:31:57.485Z,99032.56
2023-04-15T06:34:23.995Z,99033.41
2023-04-15T06:36:50.704Z,99034.34
2023-04-15T06:39:17.217Z,99035.84
2023-04-15T06:41:43.685Z,99033.78
2023-04-15T06:44:10.112Z,99036.88
2023-04-15T06:46:36.680Z,99038.94
2023-04-15T06:49:03.820Z,99034.78
2023-04-15T06:51:31.298Z,99035.72
2023-04-15T06:53:57.764Z,99041.59
2023-04-15T06:56:24.259Z,99037.03
2023-04-15T06:58:50.692Z,99035.16
2023-04-15T07:01:17.201Z,99033.28
2023-04-15T07:03:43.689Z,99037.53
2023-04-15T07:06:10.146Z,99035.13
2023-04-15T07:08:36.653Z,99033.47
2023-04-15T07:11:03.328Z,99038.13
2023-04-15T07:13:31.446Z,99036.03
2023-04-15T07:15:58.423Z,99026.75
2023-04-15T07:18:24.890Z,99029.84
2023-04-15T07:20:51.538Z,99026.69
2023-04-15T07:23:18.328Z,99025.50
2023-04-15T07:25:44.779Z,99034.56
2023-04-15T07:28:11.321Z,99037.59
2023-04-15T07:30:38.329Z,99027.06
2023-04-15T07:33:04.889Z,99032.53
2023-04-15T07:35:31.317Z,99035.13
2023-04-15T07:37:57.767Z,99033.28
2023-04-15T07:40:24.325Z,99029.66
2023-04-15T07:42:51.377Z,99031.53
2023-04-15T07:45:17.800Z,99028.94
2023-04-15T07:47:44.242Z,99022.28
2023-04-15T07:50:11.429Z,99028.56
2023-04-15T07:52:40.710Z,99023.44
2023-04-15T07:55:08.464Z,99028.31
2023-04-15T07:57:36.106Z,99026.81
2023-04-15T08:00:05.777Z,99028.41
2023-04-15T08:02:40.470Z,99028.91
2023-04-15T08:05:07.584Z,99028.69
2023-04-15T08:07:34.945Z,99024.03
2023-04-15T08:10:01.575Z,99025.59
2023-04-15T08:12:29.188Z,99022.06
2023-04-15T08:14:56.062Z,99024.84
2023-04-15T08:17:22.519Z,99029.38
2023-04-15T08:19:48.936Z,99030.72
2023-04-15T08:22:17.577Z,99034.66
2023-04-15T08:24:45.648Z,99027.19
2023-04-15T08:27:12.043Z,99032.13
2023-04-15T08:29:38.543Z,99041.34
2023-04-15T08:32:05.882Z,99033.78
2023-04-15T08:34:32.313Z,99039.84
2023-04-15T08:36:58.809Z,99037.41
2023-04-15T08:39:25.257Z,99033.66
2023-04-15T08:42:07.079Z,99042.13
2023-04-15T08:44:35.077Z,99049.16
2023-04-15T08:47:03.516Z,99059.25
2023-04-15T08:49:30.489Z,99049.25
2023-04-15T08:51:58.863Z,99056.03
2023-04-15T08:54:25.288Z,99049.63
2023-04-15T08:56:52.536Z,99047.13
2023-04-15T08:59:21.804Z,99047.50
2023-04-15T09:01:49.939Z,99047.22
2023-04-15T09:04:17.147Z,99052.00
2023-04-15T09:06:43.736Z,99037.72
2023-04-15T09:09:10.228Z,99040.56
2023-04-15T09:11:36.843Z,99048.56
2023-04-15T09:14:03.671Z,99053.91
2023-04-15T09:16:30.699Z,99051.41
2023-04-15T09:18:57.356Z,99057.31
2023-04-15T09:21:24.617Z,99060.09
2023-04-15T09:23:59.706Z,99065.63
2023-04-15T09:26:40.144Z,99069.00
2023-04-15T09:29:13.277Z,99070.28
2023-04-15T09:31:40.620Z,99073.41
2023-04-15T09:34:07.146Z,99070.56
2023-04-15T09:36:51.955Z,99068.28
2023-04-15T09:39:18.415Z,99078.56
2023-04-15T09:41:45.119Z,99068.38
2023-04-15T09:44:29.646Z,99076.19
2023-04-15T09:46:56.047Z,99077.31
2023-04-15T09:49:23.191Z,99070.06
2023-04-15T09:52:03.940Z,99087.41
2023-04-15T09:54:35.732Z,99083.00
2023-04-15T09:57:06.904Z,99076.56
2023-04-15T09:59:33.363Z,99076.16
2023-04-15T10:02:00.520Z,99079.00
2023-04-15T10:04:28.404Z,99084.47
2023-04-15T10:06:55.165Z,99080.72
2023-04-15T10:09:21.743Z,99089.94
2023-04-15T10:11:49.756Z,99093.72
2023-04-15T10:14:16.473Z,99094.69
2023-04-15T10:16:45.910Z,99097.22
2023-04-15T10:19:12.661Z,99092.72
2023-04-15T10:21:39.395Z,99105.00
2023-04-15T10:24:06.164Z,99102.34
2023-04-15T10:26:32.841Z,99099.41
2023-04-15T10:29:00.171Z,99095.06
2023-04-15T10:31:26.961Z,99103.19
2023-04-15T10:33:53.587Z,99109.63
2023-04-15T10:36:20.434Z,99105.59
2023-04-15T10:38:47.320Z,99112.13
2023-04-15T10:41:28.109Z,99115.63
2023-04-15T10:43:56.694Z,99122.47
2023-04-15T10:46:25.773Z,99128.09
2023-04-15T10:48:52.939Z,99129.06
2023-04-15T10:51:30.465Z,99130.91
2023-04-15T10:53:59.273Z,99124.19
2023-04-15T10:56:26.023Z,99125.72
2023-04-15T10:58:52.421Z,99132.94
2023-04-15T11:01:23.110Z,99137.94
2023-04-15T11:03:50.978Z,99129.69
2023-04-15T11:06:17.583Z,99140.59
2023-04-15T11:08:59.280Z,99134.63
2023-04-15T11:12:04.721Z,99132.38
2023-04-15T11:14:33.877Z,99134.78
2023-04-15T11:17:00.613Z,99145.81
2023-04-15T11:19:27.295Z,99148.91
2023-04-15T11:21:53.889Z,99147.09
2023-04-15T11:24:27.149Z,99149.19
2023-04-15T11:27:01.863Z,99142.59
2023-04-15T11:29:32.117Z,99141.38
2023-04-15T11:32:06.828Z,99143.63
2023-04-15T11:34:34.999Z,99144.75
2023-04-15T11:37:06.376Z,99140.56
2023-04-15T11:39:32.809Z,99152.00
2023-04-15T11:41:59.286Z,99152.44
2023-04-15T11:44:25.755Z,99161.38
2023-04-15T11:46:52.221Z,99155.09
2023-04-15T11:49:26.972Z,99149.91
2023-04-15T11:51:53.394Z,99146.00
2023-04-15T11:54:20.032Z,99155.06
2023-04-15T11:56:51.616Z,99154.63
2023-04-15T11:59:18.074Z,99159.81
2023-04-15T12:01:46.457Z,99161.06
2023-04-15T12:04:20.804Z,99159.38
2023-04-15T12:06:49.672Z,99158.41
2023-04-15T12:09:16.777Z,99156.31
2023-04-15T12:11:45.768Z,99162.72
2023-04-15T12:14:13.019Z,99170.28
2023-04-15T12:16:49.138Z,99165.84
2023-04-15T12:19:29.803Z,99167.38
2023-04-15T12:22:00.809Z,99161.91
2023-04-15T12:24:27.800Z,99164.56
2023-04-15T12:26:57.566Z,99161.91
2023-04-15T12:29:28.651Z,99177.03
2023-04-15T12:32:03.863Z,99179.97
2023-04-15T12:34:31.216Z,99177.31
2023-04-15T12:36:59.094Z,99184.72
2023-04-15T12:39:28.046Z,99192.00
2023-04-15T12:41:55.697Z,99197.72
2023-04-15T12:44:24.061Z,99202.56
2023-04-15T12:46:53.694Z,99203.00
2023-04-15T12:49:24.198Z,99214.03
2023-04-15T12:51:59.518Z,99210.06
2023-04-15T12:54:27.035Z,99211.56
2023-04-15T12:56:54.309Z,99221.22
2023-04-15T12:59:21.205Z,99223.03
2023-04-15T13:01:48.592Z,99223.72
2023-04-15T13:04:16.264Z,99241.47
2023-04-15T13:06:43.225Z,99244.94
2023-04-15T13:09:09.736Z,99251.31
2023-04-15T13:11:36.637Z,99258.53
2023-04-15T13:14:07.564Z,99259.53
2023-04-15T13:16:34.834Z,99271.41
2023-04-15T13:19:02.268Z,99269.16
2023-04-15T13:21:28.763Z,99275.47
2023-04-15T13:23:55.604Z,99282.72
2023-04-15T13:26:23.129Z,99276.47
2023-04-15T13:28:49.526Z,99291.25
2023-04-15T13:31:16.079Z,99295.75
2023-04-15T13:33:42.680Z,99289.56
2023-04-15T13:36:09.199Z,99294.94
2023-04-15T13:38:35.629Z,99292.38
2023-04-15T13:41:02.072Z,99304.53
2023-04-15T13:43:28.741Z,99307.41
2023-04-15T13:45:55.341Z,99299.00
2023-04-15T13:48:21.832Z,99309.34
2023-04-15T13:50:48.284Z,99305.63
2023-04-15T13:53:15.000Z,99310.59
2023-04-15T13:55:42.555Z,99309.50
2023-04-15T13:58:09.726Z,99312.28
2023-04-15T14:00:36.203Z,99318.06
2023-04-15T14:03:02.888Z,99318.69
2023-04-15T14:05:29.510Z,99322.91
2023-04-15T14:07:55.927Z,99327.63
2023-04-15T14:10:22.361Z,99332.19
2023-04-15T14:12:48.932Z,99333.63
2023-04-15T14:15:15.627Z,99337.34
2023-04-15T14:17:42.559Z,99344.81
2023-04-15T14:20:09.797Z,99345.50
2023-04-15T14:22:36.401Z,99343.38
2023-04-15T14:25:02.912Z,99346.50
2023-04-15T14:27:29.421Z,99348.28
2023-04-15T14:29:57.664Z,99349.38
2023-04-15T14:32:25.922Z,99348.91
2023-04-15T14:34:52.389Z,99365.63
2023-04-15T14:37:18.784Z,99370.19
2023-04-15T14:39:45.330Z,99367.81
2023-04-15T14:42:11.959Z,99375.00
2023-04-15T14:44:38.361Z,99378.97
2023-04-15T14:47:04.808Z,99375.94
2023-04-15T14:49:31.907Z,99388.66
2023-04-15T14:51:58.360Z,99396.47
2023-04-15T14:54:24.835Z,99399.59
2023-04-15T14:56:51.323Z,99400.88
2023-04-15T14:59:17.790Z,99408.59
2023-04-15T15:01:44.318Z,99413.03
2023-04-15T15:04:11.247Z,99410.75
2023-04-15T15:06:37.764Z,99411.81
2023-04-15T15:09:04.922Z,99414.69
2023-04-15T15:11:31.677Z,99424.06
2023-04-15T15:13:58.457Z,99418.97
2023-04-15T15:16:25.038Z,99431.13
2023-04-15T15:18:51.487Z,99429.22
2023-04-15T15:21:18.286Z,99436.81
2023-04-15T15:23:45.439Z,99440.75
2023-04-15T15:26:12.346Z,99438.97
2023-04-15T15:28:38.762Z,99441.06
2023-04-15T15:31:05.493Z,99442.16
2023-04-15T15:33:32.706Z,99451.41
2023-04-15T15:35:59.227Z,99446.22
2023-04-15T15:38:26.182Z,99454.28
2023-04-15T15:40:52.721Z,99452.91
2023-04-15T15:43:19.197Z,99455.16
2023-04-15T15:45:46.020Z,99465.13
2023-04-15T15:48:12.463Z,99461.72
2023-04-15T15:50:39.147Z,99465.22
2023-04-15T15:53:05.685Z,99467.88
2023-04-15T15:55:32.159Z,99469.78
2023-04-15T15:57:58.560Z,99477.00
2023-04-15T16:00:25.166Z,99485.75
2023-04-15T16:03:06.868Z,99488.50
2023-04-15T16:05:34.913Z,99489.13
2023-04-15T16:08:01.779Z,99491.88
2023-04-15T16:10:28.258Z,99495.25
2023-04-15T16:12:54.785Z,99497.06
2023-04-15T16:15:22.858Z,99505.19
2023-04-15T16:17:49.354Z,99506.56
2023-04-15T16:20:15.871Z,99498.84
2023-04-15T16:22:42.401Z,99501.72
2023-04-15T16:25:09.138Z,99510.84
2023-04-15T16:27:43.506Z,99512.50
2023-04-15T16:30:16.641Z,99522.47
2023-04-15T16:32:43.165Z,99516.56
2023-04-15T16:35:10.017Z,99514.84
2023-04-15T16:37:36.509Z,99518.78
2023-04-15T16:40:04.153Z,99522.81
2023-04-15T16:42:30.943Z,99526.94
2023-04-15T16:44:57.434Z,99526.31
2023-04-15T16:47:23.878Z,99528.53
2023-04-15T16:49:50.516Z,99527.69
2023-04-15T16:52:17.015Z,99528.63
2023-04-15T16:54:43.494Z,99532.63
2023-04-15T16:57:09.913Z,99537.59
2023-04-15T16:59:36.352Z,99538.44
2023-04-15T17:02:02.892Z,99544.88
2023-04-15T17:04:29.641Z,99546.47
2023-04-15T17:06:56.372Z,99548.38
2023-04-15T17:09:22.800Z,99548.28
2023-04-15T17:11:49.220Z,99558.50
2023-04-15T17:14:15.877Z,99553.97
2023-04-15T17:16:43.154Z,99554.81
2023-04-15T17:19:09.642Z,99556.22
2023-04-15T17:21:36.124Z,99561.69
2023-04-15T17:24:02.558Z,99559.16
2023-04-15T17:26:29.041Z,99567.09
2023-04-15T17:28:56.676Z,99571.63
2023-04-15T17:31:23.272Z,99566.56
2023-04-15T17:33:59.854Z,99576.06
2023-04-15T17:36:34.324Z,99590.84
2023-04-15T17:39:00.802Z,99579.13
2023-04-15T17:41:27.252Z,99581.13
2023-04-15T17:43:53.693Z,99585.81
2023-04-15T17:46:20.198Z,99589.28
2023-04-15T17:48:47.467Z,99595.72
2023-04-15T17:51:14.197Z,99596.91
2023-04-15T17:53:41.228Z,99608.19
2023-04-15T17:56:07.674Z,99609.88
2023-04-15T17:58:34.086Z,99615.28
2023-04-15T18:01:00.557Z,99615.38
2023-04-15T18:03:27.276Z,99620.66
2023-04-15T18:05:54.507Z,99619.63
2023-04-15T18:08:20.909Z,99625.50
2023-04-15T18:10:47.587Z,99629.13
2023-04-15T18:13:13.955Z,99630.06
2023-04-15T18:15:40.899Z,99630.91
2023-04-15T18:18:07.473Z,99633.53
2023-04-15T18:20:34.201Z,99639.56
2023-04-15T18:23:00.755Z,99646.22
2023-04-15T18:25:27.181Z,99652.25
2023-04-15T18:27:54.695Z,99659.13
2023-04-15T18:30:21.170Z,99656.50
2023-04-15T18:32:47.683Z,99654.78
2023-04-15T18:35:14.140Z,99657.66
2023-04-15T18:37:40.647Z,99655.97
2023-04-15T19:30:07.717Z,99722.16
2023-04-15T19:32:39.192Z,99720.19
2023-04-15T19:36:03.587Z,99732.13
2023-04-15T19:38:40.004Z,99734.56
2023-04-15T19:41:14.422Z,99732.97
2023-04-15T19:43:48.024Z,99734.66
2023-04-15T19:46:21.826Z,99741.53
2023-04-15T19:49:29.584Z,99737.09
2023-04-15T19:52:06.804Z,99744.09
2023-04-15T19:54:39.423Z,99736.06
2023-04-15T19:57:24.693Z,99739.84
2023-04-15T20:00:02.676Z,99740.69
2023-04-15T20:02:36.068Z,99746.63
2023-04-15T20:05:05.464Z,99741.34
2023-04-15T20:07:37.725Z,99746.50
2023-04-15T20:10:14.777Z,99744.91
2023-04-15T20:12:51.301Z,99746.06
2023-04-15T20:15:23.065Z,99741.53
2023-04-15T20:17:52.694Z,99739.84
2023-04-15T20:20:23.719Z,99747.66
2023-04-15T20:22:56.945Z,99747.66
2023-04-15T20:25:34.144Z,99753.13
2023-04-15T20:28:08.442Z,99753.13
2023-04-15T20:30:39.899Z,99756.63
2023-04-15T20:33:09.435Z,99742.38
2023-04-15T20:35:38.151Z,99746.81
2023-04-15T20:38:06.230Z,99759.94
2023-04-15T20:40:33.859Z,99758.34
2023-04-15T20:43:00.971Z,99766.25
2023-04-15T20:45:27.878Z,99765.50
2023-04-15T20:47:56.107Z,99771.72
2023-04-15T20:50:23.295Z,99770.88
2023-04-15T20:52:50.618Z,99765.38
2023-04-15T20:55:18.690Z,99765.59
2023-04-15T20:57:45.894Z,99764.00
2023-04-15T21:00:13.451Z,99758.72
2023-04-15T21:02:40.494Z,99771.81
2023-04-15T21:05:07.841Z,99769.19
2023-04-15T21:07:35.071Z,99786.63
2023-04-15T21:10:02.032Z,99778.59
2023-04-15T21:12:30.441Z,99781.44
2023-04-15T21:14:57.530Z,99783.31
2023-04-15T21:17:24.500Z,99785.22
2023-04-15T21:19:51.731Z,99781.72
2023-04-15T21:22:18.730Z,99787.88
2023-04-15T21:24:45.786Z,99785.00
2023-04-15T21:27:12.661Z,99792.81
2023-04-15T21:29:40.462Z,99798.97
2023-04-15T21:32:07.657Z,99797.38
2023-04-15T21:34:34.675Z,99798.09
2023-04-15T21:37:02.131Z,99798.31
2023-04-15T21:39:28.862Z,99807.19
2023-04-15T21:41:56.664Z,99804.75
2023-04-15T21:44:23.942Z,99810.88
2023-04-15T21:46:51.168Z,99813.41
2023-04-15T21:49:17.825Z,99813.41
2023-04-15T21:51:45.581Z,99816.97
2023-04-15T21:54:12.495Z,99825.88
2023-04-15T21:56:39.487Z,99823.22
2023-04-15T21:59:06.531Z,99833.03
2023-04-15T22:01:33.380Z,99839.25
2023-04-15T22:04:00.156Z,99830.56
2023-04-15T22:06:27.303Z,99835.84
2023-04-15T22:08:57.478Z,99835.09
2023-04-15T22:11:28.658Z,99839.34
2023-04-15T22:13:56.633Z,99843.75
2023-04-15T22:16:24.547Z,99838.56
2023-04-15T22:18:51.300Z,99846.50
2023-04-15T22:21:17.868Z,99844.78
2023-04-15T22:23:48.421Z,99848.09
2023-04-15T22:26:15.028Z,99853.31
2023-04-15T22:28:41.838Z,99855.28
2023-04-15T22:31:08.408Z,99856.13
2023-04-15T22:33:35.106Z,99862.22
2023-04-15T22:36:02.304Z,99864.78
2023-04-15T22:38:29.229Z,99862.22
2023-04-15T22:40:56.099Z,99870.16
2023-04-15T22:43:22.698Z,99873.66
2023-04-15T22:45:53.084Z,99880.06
2023-04-15T22:48:20.395Z,99879.97
2023-04-15T22:50:47.603Z,99884.31
2023-04-15T22:53:16.336Z,99894.78
2023-04-15T22:55:49.211Z,99896.63
2023-04-15T22:58:16.991Z,99898.06
2023-04-15T23:00:43.922Z,99892.97
2023-04-15T23:03:10.999Z,99899.09
2023-04-15T23:05:39.815Z,99904.38
2023-04-15T23:08:06.629Z,99900.88
2023-04-15T23:10:33.578Z,99900.97
2023-04-15T23:13:00.597Z,99897.78
2023-04-15T23:15:27.486Z,99906.75
2023-04-15T23:17:54.751Z,99903.34
2023-04-15T23:20:21.787Z,99908.53
2023-04-15T23:22:48.994Z,99907.88
2023-04-15T23:25:20.666Z,99901.84
2023-04-15T23:27:48.157Z,99916.34
2023-04-15T23:30:15.578Z,99906.63
2023-04-15T23:32:42.807Z,99911.75
2023-04-15T23:35:10.444Z,99915.31
2023-04-15T23:37:37.730Z,99911.81
2023-04-15T23:40:05.466Z,99909.00
2023-04-15T23:42:32.968Z,99915.78
2023-04-15T23:45:00.253Z,99910.59
2023-04-15T23:47:27.220Z,99906.16
2023-04-15T23:49:54.398Z,99911.44
2023-04-15T23:52:21.126Z,99916.91
2023-04-15T23:54:47.964Z,99917.75
2023-04-15T23:57:14.793Z,99914.28
2023-04-15T23:59:41.566Z,99916.81
